Time;durP1;ratioP1;P1;durP2;ratioP2;P2;SDS_P1;SDS_P2;PMS_P1;PMS_P2;Temp;Humidity;BMP_temperature;BMP_pressure;BME280_temperature;BME280_humidity;BME280_pressure;Samples;Min_cycle;Max_cycle;Signal;HPM_P1;HPM_P2
2022/01/27 00:06:08;;;;;;;62.78;27.90;;;5.80;99.90;;;;;;5014243;28;20072;-73
2022/01/27 00:08:46;;;;;;;55.05;26.88;;;5.80;99.90;;;;;;5029324;28;20437;-73
2022/01/27 00:11:14;;;;;;;54.75;27.67;;;5.70;99.90;;;;;;5050360;28;20127;-73
2022/01/27 00:13:45;;;;;;;59.63;27.85;;;5.70;99.90;;;;;;5072646;28;20024;-73
2022/01/27 00:16:17;;;;;;;59.03;28.67;;;5.70;99.90;;;;;;5071399;28;20031;-73
2022/01/27 00:18:46;;;;;;;65.03;29.52;;;5.70;99.90;;;;;;5071060;28;20025;-73
2022/01/27 00:21:14;;;;;;;57.78;28.63;;;5.70;99.90;;;;;;5064024;28;20025;-73
2022/01/27 00:23:45;;;;;;;62.10;30.05;;;5.70;99.90;;;;;;5069850;28;20021;-73
2022/01/27 00:26:11;;;;;;;58.45;29.67;;;5.70;99.90;;;;;;5071193;28;20545;-73
2022/01/27 00:28:38;;;;;;;62.67;30.27;;;5.70;99.90;;;;;;5068022;28;20029;-72
2022/01/27 00:31:04;;;;;;;61.33;30.38;;;5.60;99.90;;;;;;5070945;28;20036;-73
2022/01/27 00:33:29;;;;;;;61.88;32.83;;;5.60;99.90;;;;;;5072200;28;20430;-73
2022/01/27 00:35:55;;;;;;;61.85;30.83;;;5.70;99.90;;;;;;5074130;28;20036;-73
2022/01/27 00:38:21;;;;;;;61.60;31.30;;;5.70;99.90;;;;;;5073978;28;20025;-72
2022/01/27 00:40:46;;;;;;;62.15;29.60;;;5.70;99.90;;;;;;5074733;28;20465;-73
2022/01/27 00:43:12;;;;;;;61.38;30.65;;;5.70;99.90;;;;;;5075923;28;20029;-73
2022/01/27 00:45:38;;;;;;;57.53;29.50;;;5.70;99.90;;;;;;5075092;28;20039;-72
2022/01/27 00:48:05;;;;;;;55.08;26.33;;;5.60;99.90;;;;;;5075820;28;20373;-72
2022/01/27 00:50:34;;;;;;;57.20;28.08;;;5.70;99.90;;;;;;5074667;28;20103;-73
2022/01/27 00:53:02;;;;;;;61.88;28.45;;;5.70;99.90;;;;;;5072226;28;20052;-73
2022/01/27 00:55:32;;;;;;;57.40;28.35;;;5.70;99.90;;;;;;5074683;28;20016;-73
2022/01/27 01:00:33;;;;;;;57.25;28.10;;;5.60;99.90;;;;;;5075260;28;20025;-73
2022/01/27 01:15:56;;;;;;;53.80;25.17;;;5.50;99.90;;;;;;5075218;28;20065;-73
2022/01/27 01:34:52;;;;;;;54.15;25.25;;;5.60;99.90;;;;;;5071386;28;20036;-73
2022/01/27 01:37:19;;;;;;;59.00;27.98;;;5.60;99.90;;;;;;5074852;28;20044;-73
2022/01/27 01:39:45;;;;;;;56.72;26.35;;;5.60;99.90;;;;;;5072160;28;20032;-73
2022/01/27 01:42:12;;;;;;;59.00;26.83;;;5.60;99.90;;;;;;5072968;28;20030;-73
2022/01/27 01:44:38;;;;;;;53.17;25.90;;;5.60;99.90;;;;;;5073709;28;20056;-73
2022/01/27 01:47:05;;;;;;;58.58;27.80;;;5.60;99.90;;;;;;5071966;28;20106;-72
2022/01/27 01:49:31;;;;;;;50.63;25.73;;;5.50;99.90;;;;;;5074125;28;20111;-73
2022/01/27 01:52:02;;;;;;;49.15;26.35;;;5.70;99.90;;;;;;5073393;28;20112;-73
2022/01/27 01:54:27;;;;;;;55.50;26.90;;;5.70;99.90;;;;;;5074666;28;20496;-73
2022/01/27 01:56:54;;;;;;;54.65;25.73;;;5.60;99.90;;;;;;5073534;28;20071;-73
2022/01/27 01:59:19;;;;;;;53.65;25.63;;;5.70;99.90;;;;;;5073435;28;20491;-73
2022/01/27 02:01:45;;;;;;;54.28;26.52;;;5.80;99.90;;;;;;5073595;28;20032;-73
2022/01/27 02:04:12;;;;;;;50.90;25.48;;;5.70;99.90;;;;;;5070062;28;20036;-73
2022/01/27 02:06:47;;;;;;;50.75;26.05;;;5.70;99.90;;;;;;5073546;28;20036;-73
2022/01/27 02:09:25;;;;;;;55.67;26.30;;;5.70;99.90;;;;;;5069145;28;20028;-73
2022/01/27 02:20:09;;;;;;;56.63;28.00;;;5.70;99.90;;;;;;5068718;28;20083;-73
2022/01/27 02:22:35;;;;;;;54.53;26.15;;;5.70;99.90;;;;;;5073091;28;20082;-72
2022/01/27 02:25:02;;;;;;;58.65;26.90;;;5.80;99.90;;;;;;5073557;28;20032;-73
2022/01/27 02:27:28;;;;;;;53.90;26.48;;;5.80;99.90;;;;;;5058141;28;20021;-73
2022/01/27 02:29:53;;;;;;;48.83;26.05;;;5.70;99.90;;;;;;5073395;28;20028;-73
2022/01/27 02:32:19;;;;;;;50.75;24.58;;;5.70;99.90;;;;;;5069746;28;20029;-73
2022/01/27 02:34:46;;;;;;;47.47;24.25;;;5.80;99.90;;;;;;5072519;28;20013;-73
2022/01/27 02:37:12;;;;;;;52.97;26.52;;;5.80;99.90;;;;;;5073641;28;20037;-73
2022/01/27 02:39:39;;;;;;;51.92;25.85;;;5.70;99.90;;;;;;5073913;28;20052;-73
2022/01/27 02:42:25;;;;;;;46.75;24.10;;;5.80;99.90;;;;;;5074344;28;20036;-73
2022/01/27 02:44:54;;;;;;;59.25;25.73;;;5.80;99.90;;;;;;5073271;28;20023;-73
2022/01/27 02:47:21;;;;;;;50.88;24.67;;;5.80;99.90;;;;;;5071366;28;20064;-73
2022/01/27 02:49:48;;;;;;;52.10;25.58;;;5.80;99.90;;;;;;5071299;28;20024;-73
2022/01/27 02:52:14;;;;;;;47.53;24.98;;;5.80;99.90;;;;;;5052935;28;20025;-73
2022/01/27 02:54:40;;;;;;;53.35;24.75;;;5.80;99.90;;;;;;5072523;28;20485;-73
2022/01/27 02:57:06;;;;;;;46.70;23.58;;;5.70;99.90;;;;;;5073442;28;20028;-73
2022/01/27 02:59:32;;;;;;;53.75;25.10;;;5.70;99.90;;;;;;5072658;28;20222;-73
2022/01/27 03:01:57;;;;;;;51.67;24.77;;;5.80;99.90;;;;;;5072315;28;20100;-73
2022/01/27 03:04:24;;;;;;;52.35;24.48;;;5.80;99.90;;;;;;5072080;28;20023;-73
2022/01/27 03:06:50;;;;;;;45.03;23.17;;;5.80;99.90;;;;;;5072414;28;20035;-73
2022/01/27 03:09:16;;;;;;;48.55;24.35;;;5.80;99.90;;;;;;5068856;28;20111;-73
2022/01/27 03:11:51;;;;;;;54.67;24.25;;;5.90;99.90;;;;;;5070870;28;20031;-73
2022/01/27 03:14:23;;;;;;;53.55;25.08;;;5.80;99.90;;;;;;5071433;28;20025;-73
2022/01/27 03:16:52;;;;;;;47.95;24.35;;;5.90;99.90;;;;;;5071647;28;20059;-73
2022/01/27 03:19:18;;;;;;;49.92;24.95;;;5.90;99.90;;;;;;5073176;28;20036;-73
2022/01/27 03:21:43;;;;;;;41.95;21.65;;;5.90;99.90;;;;;;5072015;28;20476;-73
2022/01/27 03:24:09;;;;;;;48.92;23.83;;;6.00;99.90;;;;;;5071832;28;20036;-73
2022/01/27 03:26:35;;;;;;;47.50;23.27;;;6.00;99.90;;;;;;5072087;28;20481;-73
2022/01/27 03:29:01;;;;;;;51.88;25.15;;;6.00;99.90;;;;;;5069886;28;20032;-73
2022/01/27 03:31:27;;;;;;;58.20;24.58;;;6.00;99.90;;;;;;5072732;28;20091;-73
2022/01/27 03:33:53;;;;;;;53.10;24.80;;;6.00;99.90;;;;;;5071443;28;20028;-73
2022/01/27 03:36:18;;;;;;;50.90;24.20;;;5.90;99.90;;;;;;5069905;28;20031;-73
2022/01/27 03:38:44;;;;;;;43.42;21.35;;;5.90;99.90;;;;;;5071420;28;20039;-73
2022/01/27 03:41:11;;;;;;;50.90;23.23;;;5.90;99.90;;;;;;5069967;28;20024;-72
2022/01/27 03:43:39;;;;;;;46.67;22.65;;;6.00;99.90;;;;;;5072234;28;20494;-72
2022/01/27 03:46:06;;;;;;;43.17;22.60;;;6.00;99.90;;;;;;5071823;28;20464;-72
2022/01/27 03:48:32;;;;;;;46.60;20.98;;;6.00;99.90;;;;;;5069115;28;20480;-72
2022/01/27 03:50:58;;;;;;;46.97;22.05;;;6.00;99.90;;;;;;5071797;28;20032;-73
2022/01/27 03:53:24;;;;;;;44.90;22.33;;;6.00;99.90;;;;;;5071701;28;20025;-72
2022/01/27 03:55:49;;;;;;;48.22;22.30;;;6.00;99.90;;;;;;5072306;28;20032;-73
2022/01/27 03:58:15;;;;;;;48.42;21.85;;;6.00;99.90;;;;;;5072573;28;20498;-73
2022/01/27 04:00:41;;;;;;;41.75;20.73;;;6.00;99.90;;;;;;5072930;28;20032;-73
2022/01/27 04:03:09;;;;;;;50.60;24.65;;;6.00;99.90;;;;;;5072338;28;20035;-73
2022/01/27 04:05:39;;;;;;;50.90;23.70;;;6.10;99.90;;;;;;5069005;28;20614;-74
2022/01/27 04:08:07;;;;;;;45.72;22.00;;;6.10;99.90;;;;;;5069666;28;20488;-73
2022/01/27 04:10:33;;;;;;;45.38;22.30;;;6.10;99.90;;;;;;5071115;28;20107;-73
2022/01/27 04:12:59;;;;;;;43.28;22.15;;;6.10;99.90;;;;;;5071165;28;20541;-73
2022/01/27 04:15:25;;;;;;;47.25;22.92;;;6.10;99.90;;;;;;5072517;28;20056;-73
2022/01/27 04:17:51;;;;;;;45.78;23.38;;;6.10;99.90;;;;;;5070641;28;20492;-73
2022/01/27 04:20:17;;;;;;;46.08;21.83;;;6.10;99.90;;;;;;5072196;28;20033;-73
2022/01/27 04:22:43;;;;;;;50.28;23.05;;;6.20;99.90;;;;;;5066916;28;20024;-73
2022/01/27 04:25:09;;;;;;;44.15;20.85;;;6.20;99.90;;;;;;5071443;28;20024;-73
2022/01/27 04:27:38;;;;;;;38.55;18.50;;;6.20;99.90;;;;;;5070916;28;20373;-73
2022/01/27 04:30:07;;;;;;;44.65;20.75;;;6.20;99.90;;;;;;5072270;28;20104;-73
2022/01/27 04:32:41;;;;;;;44.30;22.10;;;6.30;99.90;;;;;;5071950;28;20465;-73
2022/01/27 04:35:10;;;;;;;46.50;23.23;;;6.20;99.90;;;;;;5072543;28;20017;-73
2022/01/27 04:37:41;;;;;;;40.55;19.98;;;6.30;99.90;;;;;;5070749;28;20043;-73
2022/01/27 04:40:14;;;;;;;49.83;23.90;;;6.20;99.90;;;;;;5066813;28;20473;-73
2022/01/27 04:42:54;;;;;;;47.15;22.10;;;6.30;99.90;;;;;;5069458;28;20061;-73
2022/01/27 04:45:24;;;;;;;40.97;21.25;;;6.40;99.90;;;;;;5071591;28;20032;-73
2022/01/27 04:47:54;;;;;;;45.47;20.30;;;6.30;99.90;;;;;;5051833;28;20028;-73
2022/01/27 04:50:20;;;;;;;44.00;21.23;;;6.30;99.90;;;;;;5071310;28;20021;-73
2022/01/27 04:52:48;;;;;;;43.83;20.80;;;6.30;99.90;;;;;;5064438;28;20017;-73
2022/01/27 04:55:16;;;;;;;36.95;19.98;;;6.30;99.90;;;;;;5070908;28;20039;-73
2022/01/27 04:57:44;;;;;;;41.90;19.80;;;6.30;99.90;;;;;;5071869;28;20487;-73
2022/01/27 05:00:13;;;;;;;42.80;21.23;;;6.30;99.90;;;;;;5069953;28;20031;-73
2022/01/27 05:02:47;;;;;;;42.35;20.88;;;6.20;99.90;;;;;;5050734;28;20032;-73
2022/01/27 05:05:12;;;;;;;41.50;20.02;;;6.40;99.90;;;;;;5071107;28;20029;-73
2022/01/27 05:07:39;;;;;;;46.13;20.20;;;6.30;99.90;;;;;;5067085;28;20097;-73
2022/01/27 05:10:14;;;;;;;43.00;20.60;;;6.30;99.90;;;;;;5051359;28;20388;-73
2022/01/27 05:12:44;;;;;;;41.15;19.85;;;6.30;99.90;;;;;;5071576;28;20028;-73
2022/01/27 05:15:10;;;;;;;45.05;21.42;;;6.30;99.90;;;;;;5068556;28;20869;-73
2022/01/27 05:17:36;;;;;;;47.17;21.00;;;6.30;99.90;;;;;;5070598;28;20505;-74
2022/01/27 05:20:02;;;;;;;41.53;21.08;;;6.30;99.90;;;;;;5070781;28;20028;-73
2022/01/27 05:22:28;;;;;;;44.08;19.73;;;6.30;99.90;;;;;;5073936;28;20036;-73
2022/01/27 05:24:53;;;;;;;39.33;19.00;;;6.20;99.90;;;;;;5074010;28;20028;-73
2022/01/27 05:27:19;;;;;;;40.30;21.27;;;6.20;99.90;;;;;;5074658;28;20097;-73
2022/01/27 05:29:45;;;;;;;46.88;21.73;;;6.20;99.90;;;;;;5071466;28;20048;-73
2022/01/27 05:32:10;;;;;;;44.30;21.33;;;6.20;99.90;;;;;;5074105;28;20116;-74
2022/01/27 05:34:36;;;;;;;46.03;21.73;;;6.20;99.90;;;;;;5075152;28;20025;-73
2022/01/27 05:37:02;;;;;;;44.83;22.17;;;6.20;99.90;;;;;;5074945;28;20035;-73
2022/01/27 05:39:27;;;;;;;43.50;19.52;;;6.20;99.90;;;;;;5073137;28;20025;-73
2022/01/27 05:41:53;;;;;;;40.60;18.77;;;6.20;99.90;;;;;;5075066;28;20039;-73
2022/01/27 05:44:19;;;;;;;42.17;20.52;;;6.20;99.90;;;;;;5074355;28;20124;-73
2022/01/27 05:46:44;;;;;;;42.60;20.50;;;6.20;99.90;;;;;;5071822;28;20064;-73
2022/01/27 05:49:10;;;;;;;36.20;18.05;;;6.20;99.90;;;;;;5072535;28;20535;-73
2022/01/27 05:51:35;;;;;;;40.50;19.67;;;6.10;99.90;;;;;;5070989;28;20041;-73
2022/01/27 05:54:01;;;;;;;40.67;19.63;;;6.10;99.90;;;;;;5073214;28;20099;-73
2022/01/27 05:56:27;;;;;;;38.42;19.10;;;6.20;99.90;;;;;;5074998;28;20040;-73
2022/01/27 05:58:52;;;;;;;43.30;20.55;;;6.10;99.90;;;;;;5071412;28;20016;-73
2022/01/27 06:01:18;;;;;;;45.80;20.50;;;6.10;99.90;;;;;;5056159;28;20028;-73
2022/01/27 06:03:44;;;;;;;42.67;21.02;;;6.20;99.90;;;;;;5072176;28;20483;-73
2022/01/27 06:06:09;;;;;;;43.97;20.48;;;6.30;99.90;;;;;;5073743;28;20071;-73
2022/01/27 06:08:35;;;;;;;45.33;20.85;;;6.30;99.90;;;;;;5073332;28;20110;-73
2022/01/27 06:11:01;;;;;;;46.22;21.23;;;6.20;99.90;;;;;;5074483;28;20024;-73
2022/01/27 06:13:26;;;;;;;42.80;21.05;;;6.30;99.90;;;;;;5074514;28;20025;-73
2022/01/27 06:15:52;;;;;;;47.40;22.40;;;6.40;99.90;;;;;;5074091;28;20118;-73
2022/01/27 06:18:19;;;;;;;46.33;21.33;;;6.40;99.90;;;;;;5071190;28;20028;-73
2022/01/27 06:20:45;;;;;;;49.15;21.40;;;6.40;99.90;;;;;;5072984;28;20024;-73
2022/01/27 06:23:15;;;;;;;47.88;22.48;;;6.50;99.90;;;;;;5074795;28;20028;-73
2022/01/27 06:25:40;;;;;;;43.20;20.38;;;6.40;99.90;;;;;;5070914;28;20033;-72
2022/01/27 06:28:07;;;;;;;50.15;21.52;;;6.40;99.90;;;;;;5073409;28;20020;-73
2022/01/27 06:30:34;;;;;;;46.95;20.80;;;6.50;99.90;;;;;;5070986;28;20031;-72
2022/01/27 06:33:02;;;;;;;51.08;22.10;;;6.40;99.90;;;;;;5072486;28;20438;-72
2022/01/27 06:35:28;;;;;;;47.35;22.92;;;6.50;99.90;;;;;;5052791;28;20021;-72
2022/01/27 06:37:53;;;;;;;51.95;23.30;;;6.60;99.90;;;;;;5072352;28;20107;-72
2022/01/27 06:40:19;;;;;;;45.95;20.27;;;6.60;99.90;;;;;;5072658;28;20036;-72
2022/01/27 06:42:45;;;;;;;51.08;23.10;;;6.50;99.90;;;;;;5072273;28;20093;-72
2022/01/27 06:45:11;;;;;;;50.65;23.08;;;6.50;99.90;;;;;;5073910;28;20107;-72
2022/01/27 06:47:37;;;;;;;46.10;23.58;;;6.60;99.90;;;;;;5073195;28;20043;-72
2022/01/27 06:50:03;;;;;;;48.83;24.17;;;6.60;99.90;;;;;;5070936;28;20029;-73
2022/01/27 06:52:29;;;;;;;56.03;23.77;;;6.60;99.90;;;;;;5072653;28;20103;-73
2022/01/27 06:54:55;;;;;;;50.67;23.70;;;6.60;99.90;;;;;;5074116;28;20096;-73
2022/01/27 06:57:22;;;;;;;56.53;24.48;;;6.60;99.90;;;;;;5073576;28;20020;-73
2022/01/27 06:59:48;;;;;;;53.33;25.80;;;6.60;99.90;;;;;;5072669;28;20032;-73
2022/01/27 07:02:14;;;;;;;54.22;23.27;;;6.70;99.90;;;;;;5073478;28;20126;-72
2022/01/27 07:04:39;;;;;;;62.17;26.98;;;6.60;99.90;;;;;;5051376;28;20025;-72
2022/01/27 07:07:05;;;;;;;52.22;24.75;;;6.60;99.90;;;;;;5071656;28;20113;-72
2022/01/27 07:09:31;;;;;;;54.92;25.23;;;6.60;99.90;;;;;;5072974;28;20030;-73
2022/01/27 07:11:56;;;;;;;60.45;27.30;;;6.60;99.90;;;;;;5070976;28;20020;-73
2022/01/27 07:14:22;;;;;;;62.17;26.85;;;6.60;99.90;;;;;;5071061;28;20163;-73
2022/01/27 07:16:48;;;;;;;59.33;27.67;;;6.50;99.90;;;;;;5071151;28;20048;-72
2022/01/27 07:19:13;;;;;;;59.97;27.52;;;6.60;99.90;;;;;;5054207;28;20059;-73
2022/01/27 07:21:39;;;;;;;59.72;26.95;;;6.50;99.90;;;;;;5073006;28;20078;-73
2022/01/27 07:24:05;;;;;;;59.65;26.55;;;6.60;99.90;;;;;;5073147;28;20028;-73
2022/01/27 07:26:31;;;;;;;72.00;28.48;;;6.60;99.90;;;;;;5072829;28;20041;-73
2022/01/27 07:28:57;;;;;;;66.68;28.25;;;6.60;99.90;;;;;;5067416;28;20454;-73
2022/01/27 07:31:24;;;;;;;69.38;30.45;;;6.60;99.90;;;;;;5071115;28;20024;-73
2022/01/27 07:33:52;;;;;;;67.82;28.05;;;6.60;99.90;;;;;;5072375;28;20532;-73
2022/01/27 07:36:18;;;;;;;58.03;26.13;;;6.60;99.90;;;;;;5073038;28;20021;-73
2022/01/27 07:38:44;;;;;;;61.45;26.13;;;6.70;99.90;;;;;;5070210;28;20047;-72
2022/01/27 07:41:13;;;;;;;56.03;26.35;;;6.70;99.90;;;;;;5071497;28;20024;-73
2022/01/27 07:43:40;;;;;;;70.25;28.95;;;6.60;99.90;;;;;;5070495;28;20499;-73
2022/01/27 07:46:06;;;;;;;61.53;27.65;;;6.60;99.90;;;;;;5069607;28;20079;-73
2022/01/27 07:48:33;;;;;;;67.38;27.98;;;6.70;99.90;;;;;;5071717;28;20089;-73
2022/01/27 07:50:58;;;;;;;58.33;28.30;;;6.70;99.90;;;;;;5072964;28;20032;-73
2022/01/27 07:53:24;;;;;;;54.88;25.77;;;6.60;99.90;;;;;;5071565;28;20024;-73
2022/01/27 07:55:50;;;;;;;59.55;27.95;;;6.60;99.90;;;;;;5070527;28;20488;-73
2022/01/27 07:58:16;;;;;;;63.88;28.98;;;6.60;99.90;;;;;;5072410;28;20035;-73
2022/01/27 08:00:41;;;;;;;62.35;27.92;;;6.80;99.90;;;;;;5072486;28;20024;-73
2022/01/27 08:03:07;;;;;;;57.97;26.50;;;6.70;99.90;;;;;;5069310;28;20032;-73
2022/01/27 08:05:32;;;;;;;57.90;26.40;;;6.70;99.90;;;;;;5052349;28;20043;-73
2022/01/27 08:07:59;;;;;;;62.97;27.08;;;6.80;99.90;;;;;;5072289;28;20043;-73
2022/01/27 08:10:25;;;;;;;62.78;29.95;;;6.70;99.90;;;;;;5071388;28;20447;-73
2022/01/27 08:12:50;;;;;;;55.55;25.58;;;6.80;99.90;;;;;;5068701;28;20036;-73
2022/01/27 08:15:19;;;;;;;63.88;26.13;;;6.80;99.90;;;;;;5070630;28;20380;-73
2022/01/27 08:17:47;;;;;;;66.07;27.38;;;6.80;99.90;;;;;;5070775;28;20023;-72
2022/01/27 08:20:13;;;;;;;58.88;28.70;;;6.80;99.90;;;;;;5067748;28;20032;-73
2022/01/27 08:22:43;;;;;;;61.30;27.20;;;6.80;99.90;;;;;;5070802;28;20028;-73
2022/01/27 08:25:09;;;;;;;59.88;27.00;;;6.90;99.90;;;;;;5069817;28;20036;-73
2022/01/27 08:27:36;;;;;;;62.25;26.70;;;6.80;99.90;;;;;;5067810;28;21013;-72
2022/01/27 08:30:05;;;;;;;64.65;28.65;;;6.90;99.90;;;;;;5068676;28;20028;-73
2022/01/27 08:32:57;;;;;;;67.97;31.38;;;6.90;99.90;;;;;;5070558;28;20020;-73
2022/01/27 08:35:24;;;;;;;64.22;30.67;;;6.90;99.90;;;;;;5069644;28;20056;-73
2022/01/27 08:37:50;;;;;;;70.90;30.60;;;7.00;99.90;;;;;;5048041;28;20036;-73
2022/01/27 08:40:16;;;;;;;64.57;28.27;;;6.90;99.90;;;;;;5070019;28;20078;-72
2022/01/27 08:42:43;;;;;;;69.70;29.40;;;6.90;99.90;;;;;;5066400;28;20027;-72
2022/01/27 08:45:17;;;;;;;68.63;30.08;;;7.00;99.90;;;;;;5070663;28;20456;-72
2022/01/27 08:47:44;;;;;;;65.15;29.20;;;7.10;99.90;;;;;;5066746;28;20025;-73
2022/01/27 08:50:11;;;;;;;67.78;29.42;;;7.10;99.90;;;;;;5069628;28;20021;-73
2022/01/27 08:52:38;;;;;;;69.53;30.08;;;7.10;99.90;;;;;;5071051;28;20020;-72
2022/01/27 08:55:05;;;;;;;68.30;29.08;;;7.10;99.90;;;;;;5069078;28;20531;-73
2022/01/27 08:57:31;;;;;;;75.40;29.05;;;7.10;99.90;;;;;;5072077;28;20111;-73
2022/01/27 08:59:57;;;;;;;84.43;34.42;;;7.10;99.90;;;;;;5074479;28;20108;-73
2022/01/27 09:02:22;;;;;;;78.10;32.03;;;7.20;99.90;;;;;;5074832;28;20024;-72
2022/01/27 09:04:49;;;;;;;75.50;29.60;;;7.20;99.90;;;;;;5069680;28;20032;-72
2022/01/27 09:07:17;;;;;;;74.25;31.23;;;7.10;99.90;;;;;;5073776;28;20047;-72
2022/01/27 09:09:43;;;;;;;76.07;33.58;;;7.10;99.90;;;;;;5074080;28;20020;-73
2022/01/27 09:12:11;;;;;;;80.60;31.50;;;7.20;99.90;;;;;;5073877;28;20045;-73
2022/01/27 09:14:38;;;;;;;75.82;31.23;;;7.20;99.90;;;;;;5074362;28;20466;-73
2022/01/27 09:17:05;;;;;;;73.47;30.08;;;7.30;99.90;;;;;;5071201;28;20029;-73
2022/01/27 09:19:36;;;;;;;73.93;32.55;;;7.20;99.90;;;;;;5073765;28;20082;-73
2022/01/27 09:22:07;;;;;;;81.97;30.23;;;7.20;99.90;;;;;;5073540;28;20031;-74
2022/01/27 09:24:38;;;;;;;77.15;32.17;;;7.10;99.90;;;;;;5075620;28;20029;-73
2022/01/27 09:27:05;;;;;;;77.15;31.35;;;7.20;99.90;;;;;;5073894;28;20435;-73
2022/01/27 09:29:31;;;;;;;75.57;30.85;;;7.30;99.90;;;;;;5072975;28;20020;-73
2022/01/27 09:31:57;;;;;;;74.93;32.33;;;7.30;99.90;;;;;;5075036;28;20047;-73
2022/01/27 09:34:23;;;;;;;78.80;32.05;;;7.40;99.90;;;;;;5074086;28;20384;-73
2022/01/27 09:36:49;;;;;;;79.65;30.95;;;7.40;99.90;;;;;;5073626;28;20468;-73
2022/01/27 09:39:16;;;;;;;72.85;31.42;;;7.40;99.90;;;;;;5072058;28;20036;-72
2022/01/27 09:41:42;;;;;;;79.25;31.50;;;7.40;99.90;;;;;;5072945;28;20103;-72
2022/01/27 09:44:12;;;;;;;74.07;31.45;;;7.50;99.90;;;;;;5073894;28;20169;-73
2022/01/27 09:46:40;;;;;;;74.07;30.08;;;7.40;99.90;;;;;;5074058;28;20036;-72
2022/01/27 09:49:12;;;;;;;68.75;28.55;;;7.50;99.90;;;;;;5072792;28;20033;-73
2022/01/27 09:51:41;;;;;;;69.70;29.10;;;7.50;99.90;;;;;;5070708;28;20115;-73
2022/01/27 09:54:08;;;;;;;71.30;31.05;;;7.50;99.90;;;;;;5071581;28;20104;-73
2022/01/27 09:56:34;;;;;;;72.53;30.88;;;7.50;99.90;;;;;;5070214;28;20382;-73
2022/01/27 09:59:00;;;;;;;80.97;32.17;;;7.60;99.90;;;;;;5073138;28;20463;-72
2022/01/27 10:01:26;;;;;;;71.88;29.65;;;7.70;99.90;;;;;;5066158;28;20013;-73
2022/01/27 10:03:57;;;;;;;73.32;30.77;;;7.70;99.90;;;;;;5071770;28;20384;-73
2022/01/27 10:06:30;;;;;;;70.53;29.88;;;7.70;99.90;;;;;;5073877;28;20060;-73
2022/01/27 10:09:24;;;;;;;69.53;31.00;;;7.60;99.90;;;;;;5068515;28;20041;-73
2022/01/27 10:11:51;;;;;;;66.80;28.95;;;7.70;99.90;;;;;;5071477;28;20103;-72
2022/01/27 10:14:17;;;;;;;65.07;28.88;;;7.70;99.90;;;;;;5074174;28;20465;-72
2022/01/27 10:16:44;;;;;;;66.47;29.10;;;7.70;99.90;;;;;;5073990;28;20035;-73
2022/01/27 10:19:11;;;;;;;64.43;28.75;;;7.80;99.90;;;;;;5072512;28;20024;-73
2022/01/27 10:21:37;;;;;;;65.75;29.58;;;7.70;99.90;;;;;;5073004;28;20079;-73
2022/01/27 10:24:26;;;;;;;60.78;27.58;;;7.80;99.90;;;;;;5070194;28;20024;-73
2022/01/27 10:27:47;;;;;;;70.85;30.48;;;7.80;99.90;;;;;;5071591;28;20055;-73
2022/01/27 10:32:54;;;;;;;58.63;27.85;;;7.90;99.90;;;;;;5071152;28;20032;-73
2022/01/27 10:35:22;;;;;;;57.20;29.42;;;7.90;99.90;;;;;;5071506;28;20468;-73
2022/01/27 10:38:03;;;;;;;61.75;29.50;;;8.00;99.90;;;;;;5070508;28;20024;-72
2022/01/27 10:40:34;;;;;;;63.83;28.67;;;8.00;99.90;;;;;;5069801;28;20493;-72
2022/01/27 10:43:05;;;;;;;65.10;29.55;;;7.90;99.90;;;;;;5072434;28;20380;-72
2022/01/27 10:45:31;;;;;;;61.97;27.73;;;8.00;99.90;;;;;;5070474;28;20115;-72
2022/01/27 10:48:14;;;;;;;60.03;28.70;;;8.00;99.90;;;;;;5069442;28;20112;-72
2022/01/27 10:53:23;;;;;;;72.07;31.48;;;8.10;99.90;;;;;;5072830;28;20028;-73
2022/01/27 10:56:07;;;;;;;61.00;28.05;;;8.10;99.90;;;;;;5071746;28;20029;-74
2022/01/27 10:58:34;;;;;;;57.80;26.88;;;8.10;99.90;;;;;;5070952;28;20039;-74
2022/01/27 11:01:00;;;;;;;55.33;28.23;;;8.10;99.90;;;;;;5068927;28;20151;-74
2022/01/27 11:03:27;;;;;;;59.47;30.58;;;8.10;99.90;;;;;;5071451;28;20036;-74
2022/01/27 11:05:54;;;;;;;59.42;27.77;;;8.20;99.90;;;;;;5073184;28;20056;-72
2022/01/27 11:08:23;;;;;;;58.03;28.25;;;8.20;99.90;;;;;;5071180;28;20098;-73
2022/01/27 11:10:50;;;;;;;51.95;27.00;;;8.20;99.90;;;;;;5068826;28;20066;-72
2022/01/27 11:13:17;;;;;;;58.13;28.88;;;8.30;99.90;;;;;;5071210;28;20016;-71
2022/01/27 11:15:44;;;;;;;59.10;30.63;;;8.30;99.90;;;;;;5070398;28;20020;-72
2022/01/27 11:18:10;;;;;;;54.03;28.52;;;8.20;99.90;;;;;;5072124;28;20117;-71
2022/01/27 11:21:02;;;;;;;60.90;30.60;;;8.30;99.90;;;;;;5069476;28;20154;-72
2022/01/27 11:26:18;;;;;;;53.92;27.02;;;8.20;99.90;;;;;;5071254;28;20029;-72
2022/01/27 11:28:46;;;;;;;48.17;24.80;;;8.20;99.90;;;;;;5068159;28;20012;-70
2022/01/27 11:31:37;;;;;;;51.28;26.52;;;8.20;99.90;;;;;;5070480;28;20036;-73
2022/01/27 11:34:07;;;;;;;57.40;29.38;;;8.20;99.90;;;;;;5067348;28;20060;-72
2022/01/27 11:36:34;;;;;;;50.40;27.27;;;8.20;99.90;;;;;;5070221;28;20532;-70
2022/01/27 11:39:01;;;;;;;55.92;28.55;;;8.20;99.90;;;;;;5071289;28;20032;-73
2022/01/27 11:41:48;;;;;;;57.03;30.63;;;8.30;99.90;;;;;;5070905;28;20373;-73
2022/01/27 11:44:23;;;;;;;58.47;29.27;;;8.30;99.90;;;;;;5071000;28;20123;-73
2022/01/27 11:47:09;;;;;;;53.70;28.85;;;8.30;99.90;;;;;;5068445;28;20024;-72
2022/01/27 11:50:07;;;;;;;51.05;28.65;;;8.30;99.90;;;;;;5066195;28;20486;-73
2022/01/27 11:52:46;;;;;;;56.58;28.95;;;8.30;99.90;;;;;;5061114;28;20111;-72
2022/01/27 11:55:23;;;;;;;47.90;27.42;;;8.30;99.90;;;;;;5064604;28;20021;-71
2022/01/27 11:57:59;;;;;;;57.55;29.42;;;8.30;99.90;;;;;;5065656;28;20484;-71
2022/01/27 12:00:30;;;;;;;51.75;27.40;;;8.40;99.90;;;;;;5067217;28;20099;-72
2022/01/27 12:03:02;;;;;;;55.80;29.77;;;8.30;99.90;;;;;;5071555;28;20031;-73
2022/01/27 12:05:33;;;;;;;58.90;30.47;;;8.40;99.90;;;;;;5047745;28;20124;-75
2022/01/27 12:08:13;;;;;;;55.05;27.75;;;8.40;99.90;;;;;;5066550;28;20290;-72
2022/01/27 12:10:58;;;;;;;51.58;29.00;;;8.40;99.90;;;;;;5067990;28;20503;-75
2022/01/27 12:13:27;;;;;;;51.20;27.73;;;8.50;99.90;;;;;;5068183;28;20833;-71
2022/01/27 12:18:59;;;;;;;55.45;28.70;;;8.50;99.90;;;;;;5069135;28;20021;-72
2022/01/27 12:21:40;;;;;;;46.08;24.85;;;8.50;99.90;;;;;;5070023;28;20028;-72
2022/01/27 12:24:16;;;;;;;44.97;23.95;;;8.60;99.90;;;;;;5067374;28;20062;-72
2022/01/27 12:27:04;;;;;;;44.17;24.38;;;8.70;99.90;;;;;;5069076;28;20041;-72
2022/01/27 12:29:36;;;;;;;39.22;21.60;;;8.70;99.90;;;;;;5070348;28;20107;-73
2022/01/27 12:32:04;;;;;;;46.38;23.52;;;8.80;99.90;;;;;;5068949;28;20107;-72
2022/01/27 12:34:31;;;;;;;39.90;21.27;;;8.80;99.90;;;;;;5070815;28;20020;-73
2022/01/27 12:37:10;;;;;;;33.67;20.38;;;8.80;99.90;;;;;;5070439;28;20043;-73
2022/01/27 12:39:48;;;;;;;33.80;21.35;;;8.90;99.90;;;;;;5070909;28;20024;-72
2022/01/27 12:42:16;;;;;;;35.28;20.58;;;8.80;99.90;;;;;;5069280;28;20025;-72
2022/01/27 12:45:10;;;;;;;41.92;20.48;;;8.90;99.90;;;;;;5071447;28;20025;-72
2022/01/27 12:47:44;;;;;;;40.03;21.23;;;8.90;99.90;;;;;;5069903;28;20063;-72
2022/01/27 12:50:20;;;;;;;38.80;22.05;;;9.00;99.90;;;;;;5050129;28;20365;-73
2022/01/27 12:52:47;;;;;;;38.50;21.70;;;9.00;99.90;;;;;;5069155;28;20079;-72
2022/01/27 12:55:25;;;;;;;35.00;21.40;;;9.00;99.90;;;;;;5051609;28;20443;-73
2022/01/27 12:57:56;;;;;;;35.88;20.85;;;8.90;99.90;;;;;;5071842;28;20028;-72
2022/01/27 13:00:22;;;;;;;37.03;22.15;;;9.00;99.90;;;;;;5071651;28;20025;-73
2022/01/27 13:02:48;;;;;;;40.47;21.50;;;9.00;99.90;;;;;;5073667;28;20033;-73
2022/01/27 13:05:13;;;;;;;34.35;18.95;;;9.10;99.90;;;;;;5051834;28;20031;-73
2022/01/27 13:07:42;;;;;;;32.85;20.77;;;9.10;99.90;;;;;;5070343;28;20037;-73
2022/01/27 13:10:13;;;;;;;40.90;24.20;;;9.10;99.90;;;;;;5068786;28;20036;-73
2022/01/27 13:12:52;;;;;;;34.92;22.60;;;9.10;99.90;;;;;;5068742;28;20082;-73
2022/01/27 13:15:26;;;;;;;32.15;20.33;;;9.10;99.90;;;;;;5071167;28;20139;-73
2022/01/27 13:17:58;;;;;;;36.50;20.70;;;9.10;99.90;;;;;;5066045;28;20372;-73
2022/01/27 13:20:28;;;;;;;30.52;19.17;;;9.20;99.90;;;;;;5071517;28;20020;-73
2022/01/27 13:23:07;;;;;;;33.53;20.95;;;9.20;99.90;;;;;;5070674;28;20099;-74
2022/01/27 13:25:45;;;;;;;28.98;17.92;;;9.30;99.90;;;;;;5068161;28;20032;-73
2022/01/27 13:28:15;;;;;;;37.38;22.20;;;9.30;99.90;;;;;;5070450;28;20118;-73
2022/01/27 13:30:42;;;;;;;31.90;20.05;;;9.30;99.90;;;;;;5071662;28;20025;-73
2022/01/27 13:33:12;;;;;;;29.55;19.60;;;9.30;99.90;;;;;;5071444;28;20473;-73
2022/01/27 13:35:37;;;;;;;31.60;20.30;;;9.30;99.90;;;;;;5067786;28;20033;-72
2022/01/27 13:38:50;;;;;;;35.90;20.27;;;9.30;99.90;;;;;;5070873;28;20031;-72
2022/01/27 13:41:24;;;;;;;36.45;22.98;;;9.20;99.90;;;;;;5066570;28;20083;-74